createdAt,value
2023-05-15T00:02:06.717Z,13.98
2023-05-15T00:05:37.449Z,13.95
2023-05-15T00:09:01.139Z,13.93
2023-05-15T00:12:47.940Z,13.92
2023-05-15T00:16:22.518Z,13.93
2023-05-15T00:19:57.892Z,13.95
2023-05-15T00:23:27.843Z,13.95
2023-05-15T00:27:01.659Z,13.91
2023-05-15T00:30:28.316Z,13.88
2023-05-15T00:33:34.887Z,13.86
2023-05-15T00:37:21.408Z,13.84
2023-05-15T00:41:02.482Z,13.81
2023-05-15T00:44:50.448Z,13.67
2023-05-15T00:48:29.872Z,13.40
2023-05-15T00:52:09.489Z,13.19
2023-05-15T00:55:50.200Z,13.08
2023-05-15T00:59:29.888Z,12.98
2023-05-15T01:03:10.116Z,12.94
2023-05-15T01:06:46.982Z,12.95
2023-05-15T01:10:10.656Z,12.98
2023-05-15T01:13:47.462Z,12.95
2023-05-15T01:17:27.164Z,12.81
2023-05-15T01:21:15.253Z,12.72
2023-05-15T01:24:59.674Z,12.71
2023-05-15T01:28:25.309Z,12.63
2023-05-15T01:32:01.428Z,12.54
2023-05-15T01:35:52.524Z,12.49
2023-05-15T01:39:26.780Z,12.45
2023-05-15T01:43:14.721Z,12.31
2023-05-15T01:46:48.383Z,12.22
2023-05-15T01:50:36.501Z,12.24
2023-05-15T01:54:15.467Z,12.17
2023-05-15T01:57:45.018Z,11.99
2023-05-15T02:01:33.025Z,11.94
2023-05-15T02:05:21.111Z,11.96
2023-05-15T02:09:09.154Z,11.97
2023-05-15T02:12:22.525Z,11.88
2023-05-15T02:15:26.209Z,11.86
2023-05-15T02:18:43.165Z,11.87
2023-05-15T02:21:43.551Z,11.89
2023-05-15T02:24:55.862Z,11.92
2023-05-15T02:28:11.176Z,11.94
2023-05-15T02:31:49.296Z,11.96
2023-05-15T02:35:44.317Z,12.00
2023-05-15T02:39:23.953Z,11.99
2023-05-15T02:42:37.806Z,11.78
2023-05-15T02:46:08.803Z,11.57
2023-05-15T02:49:29.362Z,11.40
2023-05-15T02:53:13.678Z,11.38
2023-05-15T02:56:37.276Z,11.66
2023-05-15T03:00:16.519Z,12.18
2023-05-15T03:03:53.650Z,12.76
2023-05-15T03:07:15.559Z,13.11
2023-05-15T03:10:35.181Z,13.14
2023-05-15T03:14:23.113Z,13.04
2023-05-15T03:17:53.289Z,12.90
2023-05-15T03:21:22.183Z,12.77
2023-05-15T03:24:30.261Z,12.70
2023-05-15T03:27:58.632Z,12.72
2023-05-15T03:31:11.466Z,12.84
2023-05-15T03:33:58.070Z,12.97
2023-05-15T03:37:24.158Z,13.12
2023-05-15T03:41:14.379Z,13.27
2023-05-15T03:44:37.819Z,13.42
2023-05-15T03:47:54.466Z,13.57
2023-05-15T03:51:33.933Z,13.72
2023-05-15T03:55:12.221Z,13.87
2023-05-15T03:58:40.209Z,13.99
2023-05-15T04:01:37.203Z,14.13
2023-05-15T04:05:19.778Z,14.25
2023-05-15T04:09:07.841Z,14.68
2023-05-15T04:12:39.169Z,15.28
2023-05-15T04:16:20.025Z,15.56
2023-05-15T04:19:59.148Z,15.85
2023-05-15T04:23:12.920Z,16.10
2023-05-15T04:26:18.712Z,16.30
2023-05-15T04:29:32.027Z,16.46
2023-05-15T04:33:04.216Z,16.66
2023-05-15T04:36:46.898Z,16.91
2023-05-15T04:40:18.159Z,17.86
2023-05-15T04:44:06.190Z,19.10
2023-05-15T04:47:47.517Z,20.25
2023-05-15T04:51:28.355Z,21.24
2023-05-15T04:55:08.681Z,22.01
2023-05-15T04:58:29.483Z,22.48
2023-05-15T05:02:06.421Z,22.70
2023-05-15T05:05:27.929Z,22.96
2023-05-15T05:08:38.667Z,22.98
2023-05-15T05:12:11.990Z,23.03
2023-05-15T05:15:24.391Z,23.04
2023-05-15T05:19:02.260Z,23.05
2023-05-15T05:22:50.300Z,23.09
2023-05-15T05:26:37.531Z,23.18
2023-05-15T05:29:48.508Z,23.27
2023-05-15T05:33:10.802Z,23.39
2023-05-15T05:36:45.461Z,23.51
2023-05-15T05:40:25.489Z,23.61
2023-05-15T05:43:34.163Z,23.68
2023-05-15T05:47:16.514Z,23.76
2023-05-15T05:50:44.136Z,23.86
2023-05-15T05:54:16.842Z,23.93
2023-05-15T05:57:42.057Z,24.00
2023-05-15T06:01:22.968Z,24.05
2023-05-15T06:05:00.173Z,24.09
2023-05-15T06:08:37.116Z,24.15
2023-05-15T06:12:08.289Z,24.21
2023-05-15T06:15:30.268Z,24.28
2023-05-15T06:19:03.644Z,24.38
2023-05-15T06:22:29.617Z,24.49
2023-05-15T06:25:53.382Z,24.59
2023-05-15T06:29:07.475Z,24.67
2023-05-15T06:32:18.440Z,24.76
2023-05-15T06:35:24.319Z,24.87
2023-05-15T06:38:21.097Z,24.97
2023-05-15T06:41:58.040Z,25.08
2023-05-15T06:45:31.531Z,25.20
2023-05-15T06:48:51.839Z,25.31
2023-05-15T06:51:56.633Z,25.44
2023-05-15T06:54:49.786Z,25.53
2023-05-15T06:58:18.727Z,25.62
2023-05-15T07:01:17.686Z,25.68
2023-05-15T07:04:55.267Z,25.74
2023-05-15T07:08:27.338Z,25.82
2023-05-15T07:11:42.332Z,25.90
2023-05-15T07:15:18.906Z,25.95
2023-05-15T07:18:49.659Z,26.03
2023-05-15T07:21:57.867Z,26.14
2023-05-15T07:25:28.802Z,26.22
2023-05-15T07:28:36.824Z,26.32
2023-05-15T07:31:45.780Z,26.44
2023-05-15T07:35:10.488Z,26.58
2023-05-15T07:38:33.288Z,26.71
2023-05-15T07:42:12.412Z,26.81
2023-05-15T07:45:06.313Z,26.92
2023-05-15T07:48:16.600Z,27.01
2023-05-15T07:51:47.604Z,27.10
2023-05-15T07:54:41.640Z,27.20
2023-05-15T07:57:40.876Z,27.32
2023-05-15T08:00:56.915Z,27.43
2023-05-15T08:03:45.025Z,27.54
2023-05-15T08:06:47.188Z,27.63
2023-05-15T08:10:07.027Z,27.74
2023-05-15T08:12:51.623Z,27.84
2023-05-15T08:15:30.639Z,27.91
2023-05-15T08:18:37.755Z,27.97
2023-05-15T08:21:46.271Z,28.04
2023-05-15T08:24:36.665Z,28.01
2023-05-15T08:27:45.170Z,27.87
2023-05-15T08:30:56.560Z,27.62
2023-05-15T08:34:04.479Z,27.54
2023-05-15T08:37:26.423Z,27.58
2023-05-15T08:40:58.421Z,27.58
2023-05-15T08:44:39.426Z,27.60
2023-05-15T08:47:45.178Z,27.70
2023-05-15T08:50:47.455Z,27.82
2023-05-15T08:53:35.059Z,27.98
2023-05-15T08:56:31.881Z,28.07
2023-05-15T08:59:29.469Z,28.12
2023-05-15T09:02:16.572Z,28.16
2023-05-15T09:05:29.183Z,28.15
2023-05-15T09:08:32.169Z,28.13
2023-05-15T09:11:47.156Z,28.09
2023-05-15T09:15:39.116Z,28.13
2023-05-15T09:18:52.747Z,28.23
2023-05-15T09:21:56.901Z,28.33
2023-05-15T09:24:53.184Z,28.47
2023-05-15T09:28:44.462Z,28.62
2023-05-15T09:31:31.785Z,28.68
2023-05-15T09:34:22.735Z,28.69
2023-05-15T09:36:50.211Z,28.67
2023-05-15T09:40:19.295Z,28.68
2023-05-15T09:43:22.747Z,28.75
2023-05-15T09:46:43.450Z,28.84
2023-05-15T09:49:34.637Z,28.85
2023-05-15T09:52:42.411Z,28.81
2023-05-15T09:56:21.036Z,28.63
2023-05-15T10:00:09.132Z,28.47
2023-05-15T10:04:03.459Z,28.45
2023-05-15T10:07:19.652Z,28.34
2023-05-15T10:11:01.512Z,28.22
2023-05-15T10:14:32.779Z,28.22
2023-05-15T10:18:12.908Z,28.28
2023-05-15T10:21:54.969Z,28.40
2023-05-15T10:25:28.837Z,28.57
2023-05-15T10:28:38.802Z,28.82
2023-05-15T10:32:15.405Z,29.05
2023-05-15T10:35:46.031Z,29.31
2023-05-15T10:39:17.549Z,29.54
2023-05-15T10:42:36.193Z,29.72
2023-05-15T10:46:21.247Z,29.73
2023-05-15T10:49:14.201Z,29.89
2023-05-15T10:52:12.131Z,29.97
2023-05-15T10:55:20.531Z,30.12
2023-05-15T10:58:53.151Z,30.24
2023-05-15T11:02:01.165Z,30.34
2023-05-15T11:05:12.781Z,30.43
2023-05-15T11:08:58.948Z,30.43
2023-05-15T11:12:15.392Z,30.26
2023-05-15T11:15:04.743Z,30.11
2023-05-15T11:18:12.350Z,30.04
2023-05-15T11:21:15.304Z,30.07
2023-05-15T11:24:36.179Z,30.23
2023-05-15T11:27:13.497Z,30.25
2023-05-15T11:30:30.497Z,30.26
2023-05-15T11:33:38.221Z,30.35
2023-05-15T11:36:26.382Z,30.40
2023-05-15T11:39:11.568Z,30.46
2023-05-15T11:42:17.514Z,30.65
2023-05-15T11:44:51.483Z,30.89
2023-05-15T11:48:00.311Z,31.10
2023-05-15T11:51:08.392Z,31.26
2023-05-15T11:53:56.044Z,31.34
2023-05-15T11:59:48.372Z,31.33
2023-05-15T12:03:10.328Z,31.31
2023-05-15T12:05:57.624Z,31.52
2023-05-15T12:08:53.216Z,31.78
2023-05-15T12:11:58.975Z,32.10
2023-05-15T12:15:20.799Z,32.29
2023-05-15T12:18:07.804Z,32.45
2023-05-15T12:21:06.129Z,32.66
2023-05-15T12:24:08.042Z,32.80
2023-05-15T12:27:37.617Z,32.77
2023-05-15T12:30:37.779Z,32.72
2023-05-15T12:33:37.631Z,32.60
2023-05-15T12:36:53.924Z,32.55
2023-05-15T12:40:30.975Z,32.58
2023-05-15T12:43:49.023Z,32.83
2023-05-15T12:47:02.047Z,33.24
2023-05-15T12:50:41.042Z,33.42
2023-05-15T12:53:58.879Z,33.45
2023-05-15T12:57:13.637Z,33.40
2023-05-15T13:01:06.461Z,33.34
2023-05-15T13:04:37.219Z,33.32
2023-05-15T13:07:23.526Z,33.17
2023-05-15T13:10:34.064Z,32.98
2023-05-15T13:13:29.762Z,32.55
2023-05-15T13:16:43.064Z,32.35
2023-05-15T13:19:57.089Z,32.40
2023-05-15T13:22:28.050Z,32.60
2023-05-15T13:24:57.281Z,32.78
2023-05-15T13:27:24.946Z,32.82
2023-05-15T13:30:25.196Z,32.79
2023-05-15T13:32:55.977Z,32.86
2023-05-15T13:35:33.844Z,32.98
2023-05-15T13:38:18.456Z,33.20
2023-05-15T13:41:47.411Z,33.65
2023-05-15T13:45:10.872Z,34.00
2023-05-15T13:48:28.338Z,34.27
2023-05-15T13:51:49.466Z,34.31
2023-05-15T13:55:02.611Z,33.81
2023-05-15T13:58:44.153Z,33.34
2023-05-15T14:01:56.412Z,32.97
2023-05-15T14:05:20.908Z,32.82
2023-05-15T14:08:33.262Z,32.67
2023-05-15T14:11:47.308Z,32.74
2023-05-15T14:14:45.963Z,32.60
2023-05-15T14:18:05.848Z,32.18
2023-05-15T14:21:04.868Z,31.72
2023-05-15T14:24:05.696Z,31.34
2023-05-15T14:27:35.494Z,30.88
2023-05-15T14:31:05.353Z,30.40
2023-05-15T14:34:07.061Z,30.21
2023-05-15T14:37:05.722Z,30.03
2023-05-15T14:40:06.413Z,29.92
2023-05-15T14:43:08.967Z,29.90
2023-05-15T14:45:41.794Z,29.95
2023-05-15T14:48:31.079Z,30.04
2023-05-15T14:51:14.125Z,30.04
2023-05-15T14:54:21.807Z,29.98
2023-05-15T14:56:49.018Z,29.97
2023-05-15T14:59:36.667Z,30.06
2023-05-15T15:02:06.601Z,30.13
2023-05-15T15:05:14.780Z,30.11
2023-05-15T15:08:59.834Z,30.04
2023-05-15T15:12:21.677Z,29.95
2023-05-15T15:15:29.449Z,29.82
2023-05-15T15:18:37.556Z,29.70
2023-05-15T15:21:54.889Z,29.55
2023-05-15T15:25:01.231Z,29.23
2023-05-15T15:28:23.875Z,28.91
2023-05-15T15:31:08.898Z,28.64
2023-05-15T15:34:24.078Z,28.40
2023-05-15T15:37:39.031Z,28.14
2023-05-15T15:41:10.381Z,27.81
2023-05-15T15:44:41.250Z,27.40
2023-05-15T15:47:44.631Z,27.06
2023-05-15T15:51:26.501Z,26.80
2023-05-15T15:54:37.799Z,26.62
2023-05-15T15:57:59.006Z,26.47
2023-05-15T16:01:25.943Z,26.37
2023-05-15T16:04:37.043Z,26.26
2023-05-15T16:08:10.196Z,26.12
2023-05-15T16:11:37.000Z,25.97
2023-05-15T16:14:45.031Z,25.85
2023-05-15T16:18:02.645Z,25.77
2023-05-15T16:21:29.331Z,25.73
2023-05-15T16:28:29.096Z,25.58
2023-05-15T16:31:56.597Z,25.51
2023-05-15T16:35:02.111Z,25.42
2023-05-15T16:38:26.082Z,25.36
2023-05-15T16:42:14.058Z,25.29
2023-05-15T16:46:02.235Z,25.15
2023-05-15T16:48:55.706Z,25.06
2023-05-15T16:52:20.794Z,25.02
2023-05-15T16:55:30.391Z,24.93
2023-05-15T16:58:56.613Z,24.82
2023-05-15T17:02:28.524Z,24.71
2023-05-15T17:06:06.091Z,24.60
2023-05-15T17:09:11.864Z,24.51
2023-05-15T17:12:33.526Z,24.42
2023-05-15T17:15:37.870Z,24.28
2023-05-15T17:18:45.625Z,24.18
2023-05-15T17:21:59.137Z,24.09
2023-05-15T17:24:55.333Z,24.00
2023-05-15T17:27:55.847Z,23.88
2023-05-15T17:31:29.747Z,23.74
2023-05-15T17:35:27.539Z,23.61
2023-05-15T17:38:31.864Z,23.50
2023-05-15T17:41:58.667Z,23.41
2023-05-15T17:45:00.510Z,23.37
2023-05-15T17:48:45.183Z,23.33
2023-05-15T17:52:01.721Z,23.28
2023-05-15T17:55:26.071Z,23.24
2023-05-15T17:58:57.104Z,23.21
2023-05-15T18:02:25.057Z,23.16
2023-05-15T18:05:58.134Z,23.10
2023-05-15T18:09:29.767Z,23.05
2023-05-15T18:12:31.549Z,23.02
2023-05-15T18:16:08.727Z,22.98
2023-05-15T18:19:44.048Z,22.89
2023-05-15T18:23:20.315Z,22.78
2023-05-15T18:26:23.771Z,22.70
2023-05-15T18:29:45.634Z,22.65
2023-05-15T18:33:18.524Z,22.56
2023-05-15T18:35:46.088Z,22.49
2023-05-15T18:39:02.841Z,22.43
2023-05-15T18:42:22.231Z,22.30
2023-05-15T18:45:09.908Z,22.22
2023-05-15T18:48:17.476Z,22.10
2023-05-15T18:50:44.539Z,22.00
2023-05-15T18:53:21.922Z,21.93
2023-05-15T18:56:33.531Z,21.87
2023-05-15T18:59:59.541Z,21.85
2023-05-15T19:03:26.038Z,21.78
2023-05-15T19:06:53.693Z,21.65
2023-05-15T19:10:09.154Z,21.53
2023-05-15T19:13:42.634Z,21.47
2023-05-15T19:17:25.486Z,21.43
2023-05-15T19:21:07.635Z,21.36
2023-05-15T19:24:54.793Z,21.29
2023-05-15T19:28:20.319Z,21.22
2023-05-15T19:31:42.413Z,21.13
2023-05-15T19:35:00.204Z,21.08
2023-05-15T19:38:49.049Z,21.05
2023-05-15T19:42:19.819Z,21.00
2023-05-15T19:45:29.790Z,20.94
2023-05-15T19:49:05.833Z,20.90
2023-05-15T19:52:53.046Z,20.86
2023-05-15T19:56:23.057Z,20.81
2023-05-15T20:00:11.113Z,20.74
2023-05-15T20:03:45.728Z,20.67
2023-05-15T20:06:55.383Z,20.64
2023-05-15T20:09:58.104Z,20.65
2023-05-15T20:13:03.157Z,20.63
2023-05-15T20:16:24.207Z,20.62
2023-05-15T20:19:28.464Z,20.62
2023-05-15T20:22:33.663Z,20.63
2023-05-15T20:25:40.228Z,20.62
2023-05-15T20:28:50.930Z,20.60
2023-05-15T20:32:19.312Z,20.58
2023-05-15T20:34:58.914Z,20.56
2023-05-15T20:38:34.097Z,20.54
2023-05-15T20:41:50.176Z,20.48
2023-05-15T20:44:30.052Z,20.44
2023-05-15T20:47:45.030Z,20.41
2023-05-15T20:51:14.879Z,20.36
2023-05-15T20:54:03.342Z,20.29
2023-05-15T20:57:23.402Z,20.22
2023-05-15T21:00:51.480Z,20.16
2023-05-15T21:04:18.588Z,20.09
2023-05-15T21:07:49.480Z,20.02
2023-05-15T21:11:24.867Z,19.98
2023-05-15T21:14:46.505Z,19.92
2023-05-15T21:18:11.189Z,19.87
2023-05-15T21:21:30.381Z,19.81
2023-05-15T21:24:57.519Z,19.75
2023-05-15T21:27:53.059Z,19.71
2023-05-15T21:30:43.072Z,19.66
2023-05-15T21:33:51.831Z,19.62
2023-05-15T21:36:33.853Z,19.55
2023-05-15T21:39:19.155Z,19.47
2023-05-15T21:42:29.938Z,19.39
2023-05-15T21:46:07.134Z,19.35
2023-05-15T21:49:21.393Z,19.32
2023-05-15T21:52:18.904Z,19.29
2023-05-15T21:55:30.521Z,19.26
2023-05-15T21:58:46.235Z,19.22
2023-05-15T22:02:10.217Z,19.20
2023-05-15T22:05:37.441Z,19.19
2023-05-15T22:09:18.507Z,19.16
2023-05-15T22:12:58.669Z,19.11
2023-05-15T22:16:40.530Z,19.05
2023-05-15T22:20:07.896Z,18.99
2023-05-15T22:23:54.882Z,18.93
2023-05-15T22:27:16.908Z,18.88
2023-05-15T22:30:30.660Z,18.82
2023-05-15T22:33:51.420Z,18.75
2023-05-15T22:37:33.116Z,18.68
2023-05-15T22:41:18.923Z,18.58
2023-05-15T22:44:54.198Z,18.47
2023-05-15T22:48:40.975Z,18.38
2023-05-15T22:52:28.892Z,18.30
2023-05-15T22:55:39.670Z,18.24
2023-05-15T22:59:16.365Z,18.22
2023-05-15T23:03:02.065Z,18.21
2023-05-15T23:06:49.229Z,18.15
2023-05-15T23:10:02.141Z,18.07
2023-05-15T23:13:40.353Z,18.00
2023-05-15T23:17:21.260Z,17.92
2023-05-15T23:20:53.943Z,17.85
2023-05-15T23:24:41.930Z,17.83
2023-05-15T23:28:18.690Z,17.82
2023-05-15T23:31:52.265Z,17.78
2023-05-15T23:35:33.654Z,17.75
2023-05-15T23:38:52.170Z,17.69
2023-05-15T23:42:38.922Z,17.62
2023-05-15T23:46:19.665Z,17.60
2023-05-15T23:49:59.025Z,17.59
2023-05-15T23:53:25.864Z,17.57
2023-05-15T23:57:13.893Z,17.57
